Time;durP1;ratioP1;P1;durP2;ratioP2;P2;SDS_P1;SDS_P2;PMS_P1;PMS_P2;Temp;Humidity;BMP_temperature;BMP_pressure;BME280_temperature;BME280_humidity;BME280_pressure;Samples;Min_cycle;Max_cycle;Signal;HPM_P1;HPM_P2
2023/04/05 00:01:27;;;;;;;6.78;4.63;;;;;;;;;;4975292;28;20073;-72
2023/04/05 00:03:54;;;;;;;7.53;5.30;;;;;;;;;;4974629;28;20058;-71
2023/04/05 00:06:25;;;;;;;6.18;4.88;;;;;;;;;;4976690;28;20046;-70
2023/04/05 00:08:54;;;;;;;7.05;5.03;;;;;;;;;;4973435;28;20418;-71
2023/04/05 00:11:23;;;;;;;7.25;5.00;;;;;;;;;;4980817;28;21137;-71
2023/04/05 00:13:48;;;;;;;13.50;6.38;;;;;;;;;;4977454;28;20053;-71
2023/04/05 00:16:15;;;;;;;7.60;5.03;;;;;;;;;;4975217;28;20061;-71
2023/04/05 00:18:45;;;;;;;7.03;5.10;;;;;;;;;;4981083;28;20054;-71
2023/04/05 00:21:13;;;;;;;8.30;4.50;;;;;;;;;;4974529;28;20113;-72
2023/04/05 00:23:40;;;;;;;6.22;4.47;;;;;;;;;;4980310;28;20049;-72
2023/04/05 00:26:06;;;;;;;10.90;4.82;;;;;;;;;;4980805;28;20424;-70
2023/04/05 00:28:32;;;;;;;8.70;4.68;;;;;;;;;;4981058;28;20073;-71
2023/04/05 00:30:57;;;;;;;5.47;4.13;;;;;;;;;;4974501;28;20441;-71
2023/04/05 00:33:23;;;;;;;6.40;4.90;;;;;;;;;;4980885;28;20055;-71
2023/04/05 00:35:48;;;;;;;6.47;4.78;;;;;;;;;;4994852;28;20047;-72
2023/04/05 00:38:13;;;;;;;11.40;4.88;;;;;;;;;;4973082;28;20050;-71
2023/04/05 00:40:39;;;;;;;8.52;4.60;;;;;;;;;;4989836;28;20046;-72
2023/04/05 00:43:04;;;;;;;4.97;4.25;;;;;;;;;;4989349;28;20046;-71
2023/04/05 00:45:30;;;;;;;5.20;4.38;;;;;;;;;;4992228;28;20055;-72
2023/04/05 00:47:56;;;;;;;5.28;4.10;;;;;;;;;;4978279;28;20054;-71
2023/04/05 00:50:22;;;;;;;7.95;4.53;;;;;;;;;;4995351;28;20042;-71
2023/04/05 00:52:48;;;;;;;6.78;4.45;;;;;;;;;;4990966;28;20069;-71
2023/04/05 00:55:14;;;;;;;5.32;4.70;;;;;;;;;;4980141;28;20116;-72
2023/04/05 00:57:41;;;;;;;5.80;4.35;;;;;;;;;;4980140;28;20042;-71
2023/04/05 01:00:10;;;;;;;6.68;4.32;;;;;;;;;;4995201;28;20070;-71
2023/04/05 01:02:51;;;;;;;5.68;4.15;;;;;;;;;;4975004;28;20074;-70
2023/04/05 01:05:33;;;;;;;5.75;4.22;;;;;;;;;;4993868;28;20516;-70
2023/04/05 01:08:12;;;;;;;4.80;4.30;;;;;;;;;;4993937;28;20046;-71
2023/04/05 01:10:41;;;;;;;6.75;4.32;;;;;;;;;;4992230;28;20048;-70
2023/04/05 01:13:07;;;;;;;6.13;4.30;;;;;;;;;;4997759;28;20057;-71
2023/04/05 01:15:33;;;;;;;7.53;4.78;;;;;;;;;;4978071;28;20038;-70
2023/04/05 01:18:00;;;;;;;6.45;4.38;;;;;;;;;;4969286;28;20440;-70
2023/04/05 01:20:31;;;;;;;9.45;4.80;;;;;;;;;;4967663;28;20034;-70
2023/04/05 01:23:36;;;;;;;7.35;4.97;;;;;;;;;;4970754;28;20202;-70
2023/04/05 01:26:14;;;;;;;9.45;5.20;;;;;;;;;;4996999;28;20062;-70
2023/04/05 01:29:18;;;;;;;7.53;4.95;;;;;;;;;;4986391;28;20050;-70
2023/04/05 01:32:25;;;;;;;5.10;3.83;;;;;;;;;;4971718;28;20495;-71
2023/04/05 01:35:03;;;;;;;9.15;4.97;;;;;;;;;;4980411;28;20052;-71
2023/04/05 01:37:33;;;;;;;8.10;4.45;;;;;;;;;;4991564;28;20432;-72
2023/04/05 01:40:00;;;;;;;7.10;4.38;;;;;;;;;;4977609;28;20123;-71
2023/04/05 01:42:26;;;;;;;5.88;4.20;;;;;;;;;;4983566;28;20109;-70
2023/04/05 01:44:52;;;;;;;10.95;4.57;;;;;;;;;;4972694;28;20050;-70
2023/04/05 01:47:19;;;;;;;5.68;4.38;;;;;;;;;;4988663;28;20121;-70
2023/04/05 01:49:44;;;;;;;5.32;4.30;;;;;;;;;;4980691;28;20070;-71
2023/04/05 01:52:10;;;;;;;7.55;4.75;;;;;;;;;;4997955;28;20066;-70
2023/04/05 01:54:35;;;;;;;7.00;4.75;;;;;;;;;;4998036;28;20042;-70
2023/04/05 01:57:01;;;;;;;7.60;4.85;;;;;;;;;;4983784;28;20124;-70
2023/04/05 01:59:26;;;;;;;6.90;4.82;;;;;;;;;;4998037;28;20038;-70
2023/04/05 02:01:52;;;;;;;5.45;4.40;;;;;;;;;;4990751;28;20043;-71
2023/04/05 02:04:17;;;;;;;5.78;4.60;;;;;;;;;;4983305;28;20070;-71
2023/04/05 02:06:42;;;;;;;7.63;4.85;;;;;;;;;;4983431;28;20058;-71
2023/04/05 02:09:08;;;;;;;7.50;4.68;;;;;;;;;;4998265;28;20116;-71
2023/04/05 02:11:33;;;;;;;7.68;4.50;;;;;;;;;;4993237;28;20101;-71
2023/04/05 02:13:59;;;;;;;5.38;4.70;;;;;;;;;;4980100;28;20054;-71
2023/04/05 02:16:25;;;;;;;8.55;4.93;;;;;;;;;;4975400;28;20073;-70
2023/04/05 02:18:56;;;;;;;6.60;4.80;;;;;;;;;;4990092;28;20076;-71
2023/04/05 02:21:22;;;;;;;9.77;5.30;;;;;;;;;;4972931;28;20385;-70
2023/04/05 02:23:48;;;;;;;6.32;4.90;;;;;;;;;;4987208;28;20042;-70
2023/04/05 02:26:13;;;;;;;7.28;4.90;;;;;;;;;;4973525;28;20046;-70
2023/04/05 02:28:39;;;;;;;6.78;5.10;;;;;;;;;;4975313;28;20050;-70
2023/04/05 02:31:12;;;;;;;8.35;4.43;;;;;;;;;;4988450;28;20100;-71
2023/04/05 02:33:40;;;;;;;7.00;4.95;;;;;;;;;;4987159;28;20133;-70
2023/04/05 02:36:08;;;;;;;7.10;4.95;;;;;;;;;;4976703;28;21091;-70
2023/04/05 02:38:34;;;;;;;6.55;5.00;;;;;;;;;;4973006;28;20101;-70
2023/04/05 02:40:59;;;;;;;9.02;5.38;;;;;;;;;;4976753;28;20241;-72
2023/04/05 02:43:25;;;;;;;6.47;4.57;;;;;;;;;;4997581;28;20053;-72
2023/04/05 02:45:50;;;;;;;6.38;4.65;;;;;;;;;;4982892;28;20078;-72
2023/04/05 02:48:17;;;;;;;7.47;4.97;;;;;;;;;;4997760;28;20105;-72
2023/04/05 02:50:50;;;;;;;6.50;5.07;;;;;;;;;;4982592;28;20053;-72
2023/04/05 02:53:17;;;;;;;9.20;5.50;;;;;;;;;;4981078;28;20135;-72
2023/04/05 02:55:52;;;;;;;;;;;;;;;;;;4990616;28;20579;-72
2023/04/05 02:58:17;;;;;;;5.55;4.68;;;;;;;;;;4995364;28;20442;-72
2023/04/05 03:00:49;;;;;;;5.53;4.50;;;;;;;;;;4991576;28;20100;-72
2023/04/05 03:03:19;;;;;;;5.60;4.38;;;;;;;;;;4981977;28;20050;-72
2023/04/05 03:05:46;;;;;;;7.30;5.10;;;;;;;;;;4974264;28;20512;-72
2023/04/05 03:08:22;;;;;;;7.65;4.65;;;;;;;;;;4995752;28;20058;-72
2023/04/05 03:10:57;;;;;;;7.10;4.60;;;;;;;;;;4996419;28;20050;-72
2023/04/05 03:13:22;;;;;;;6.65;4.80;;;;;;;;;;4982132;28;20045;-70
2023/04/05 03:15:52;;;;;;;9.93;5.10;;;;;;;;;;4989797;28;20062;-70
2023/04/05 03:18:19;;;;;;;5.82;4.80;;;;;;;;;;4989640;28;20069;-71
2023/04/05 03:20:48;;;;;;;7.07;4.97;;;;;;;;;;4996121;28;20061;-71
2023/04/05 03:23:18;;;;;;;7.30;4.88;;;;;;;;;;4980914;28;20066;-71
2023/04/05 03:25:46;;;;;;;7.82;5.10;;;;;;;;;;4995345;28;20052;-72
2023/04/05 03:28:14;;;;;;;10.48;5.40;;;;;;;;;;4995637;28;20042;-72
2023/04/05 03:30:43;;;;;;;8.27;4.95;;;;;;;;;;4990660;28;20053;-71
2023/04/05 03:33:16;;;;;;;6.13;4.53;;;;;;;;;;4972082;28;20051;-71
2023/04/05 03:35:44;;;;;;;6.63;5.25;;;;;;;;;;4995499;28;20563;-71
2023/04/05 03:38:11;;;;;;;8.45;5.22;;;;;;;;;;4996579;28;20054;-71
2023/04/05 03:40:42;;;;;;;6.85;5.15;;;;;;;;;;4988584;28;20042;-71
2023/04/05 03:43:09;;;;;;;6.78;5.47;;;;;;;;;;4973096;28;20053;-71
2023/04/05 03:45:35;;;;;;;13.07;6.10;;;;;;;;;;4986559;28;20043;-70
2023/04/05 03:48:01;;;;;;;9.93;6.07;;;;;;;;;;4965512;28;20381;-71
2023/04/05 03:50:27;;;;;;;10.32;5.50;;;;;;;;;;4969366;28;20054;-71
2023/04/05 03:52:53;;;;;;;7.10;5.30;;;;;;;;;;4987012;28;20047;-69
2023/04/05 03:55:19;;;;;;;9.88;6.07;;;;;;;;;;4965984;28;20045;-71
2023/04/05 03:57:46;;;;;;;12.30;5.97;;;;;;;;;;4966577;28;20055;-71
2023/04/05 04:00:38;;;;;;;7.47;5.15;;;;;;;;;;4969013;28;20042;-71
2023/04/05 04:03:13;;;;;;;9.80;5.22;;;;;;;;;;4979499;28;20094;-71
2023/04/05 04:05:42;;;;;;;8.82;5.03;;;;;;;;;;4960942;28;20122;-70
2023/04/05 04:08:08;;;;;;;8.38;5.50;;;;;;;;;;4987797;28;20050;-70
2023/04/05 04:10:35;;;;;;;9.93;5.60;;;;;;;;;;4996038;28;20146;-70
2023/04/05 04:13:01;;;;;;;7.28;5.10;;;;;;;;;;4986716;28;20054;-70
2023/04/05 04:15:30;;;;;;;6.15;4.80;;;;;;;;;;4975480;28;20126;-71
2023/04/05 04:18:13;;;;;;;8.07;5.00;;;;;;;;;;4996488;28;20042;-69
2023/04/05 04:20:55;;;;;;;14.85;8.13;;;;;;;;;;4991924;28;20140;-69
2023/04/05 04:23:44;;;;;;;9.75;6.18;;;;;;;;;;4965970;28;20057;-69
2023/04/05 04:26:36;;;;;;;8.43;5.30;;;;;;;;;;4982291;28;20087;-70
2023/04/05 04:29:29;;;;;;;6.88;4.75;;;;;;;;;;4966781;28;20140;-70
2023/04/05 04:32:50;;;;;;;5.70;4.88;;;;;;;;;;4971562;28;20054;-69
2023/04/05 04:35:27;;;;;;;7.40;4.45;;;;;;;;;;4964539;28;20098;-69
2023/04/05 04:38:17;;;;;;;13.82;5.68;;;;;;;;;;4978340;28;20272;-69
2023/04/05 04:40:49;;;;;;;8.02;4.60;;;;;;;;;;4995514;28;20054;-69
2023/04/05 04:43:26;;;;;;;8.27;5.53;;;;;;;;;;4972605;28;20035;-69
2023/04/05 04:46:13;;;;;;;7.57;5.45;;;;;;;;;;4982990;28;20079;-69
2023/04/05 04:48:57;;;;;;;9.73;5.30;;;;;;;;;;4970824;28;20060;-70
2023/04/05 04:51:32;;;;;;;6.53;5.22;;;;;;;;;;4968121;28;20046;-71
2023/04/05 04:53:58;;;;;;;5.93;4.05;;;;;;;;;;4968583;28;20050;-70
2023/04/05 04:56:24;;;;;;;6.63;5.00;;;;;;;;;;4981064;28;20105;-71
2023/04/05 04:58:53;;;;;;;7.57;5.20;;;;;;;;;;4983795;28;20046;-71
2023/04/05 05:01:21;;;;;;;5.82;4.70;;;;;;;;;;4973581;28;20050;-70
2023/04/05 05:03:46;;;;;;;8.65;5.55;;;;;;;;;;4980238;28;20046;-71
2023/04/05 05:06:20;;;;;;;6.82;4.82;;;;;;;;;;4998178;28;20047;-71
2023/04/05 05:08:47;;;;;;;6.85;5.75;;;;;;;;;;4968527;28;20169;-71
2023/04/05 05:11:12;;;;;;;8.55;4.30;;;;;;;;;;4980282;28;20046;-71
2023/04/05 05:13:37;;;;;;;5.85;4.75;;;;;;;;;;4979886;28;20389;-69
2023/04/05 05:16:04;;;;;;;7.95;5.50;;;;;;;;;;4972675;28;20154;-70
2023/04/05 05:18:30;;;;;;;7.13;4.38;;;;;;;;;;4979217;28;20059;-70
2023/04/05 05:20:55;;;;;;;5.47;4.13;;;;;;;;;;4977170;28;20069;-70
2023/04/05 05:23:20;;;;;;;9.68;4.85;;;;;;;;;;4981968;28;20046;-71
2023/04/05 05:25:46;;;;;;;4.75;3.53;;;;;;;;;;4981846;28;20054;-70
2023/04/05 05:28:13;;;;;;;11.27;5.65;;;;;;;;;;4965237;28;20539;-71
2023/04/05 05:30:39;;;;;;;9.60;5.60;;;;;;;;;;4971020;28;20074;-71
2023/04/05 05:33:04;;;;;;;4.20;3.15;;;;;;;;;;4980772;28;20125;-71
2023/04/05 05:35:29;;;;;;;6.30;3.97;;;;;;;;;;4983982;28;20046;-71
2023/04/05 05:37:55;;;;;;;5.28;4.43;;;;;;;;;;4983742;28;20111;-71
2023/04/05 05:40:20;;;;;;;8.35;4.68;;;;;;;;;;4982013;28;20581;-71
2023/04/05 05:42:46;;;;;;;12.25;5.05;;;;;;;;;;4978336;28;20054;-71
2023/04/05 05:45:11;;;;;;;6.32;3.90;;;;;;;;;;4980956;28;20053;-71
2023/04/05 05:47:36;;;;;;;9.25;4.43;;;;;;;;;;4982845;28;20499;-71
2023/04/05 05:50:02;;;;;;;4.35;3.85;;;;;;;;;;4983842;28;20411;-71
2023/04/05 05:52:28;;;;;;;6.32;4.10;;;;;;;;;;4974656;28;20096;-71
2023/04/05 05:54:53;;;;;;;5.13;4.35;;;;;;;;;;4983123;28;20288;-71
2023/04/05 05:57:19;;;;;;;5.32;3.63;;;;;;;;;;4983019;28;20051;-71
2023/04/05 05:59:44;;;;;;;7.63;3.92;;;;;;;;;;4982992;28;20045;-72
2023/04/05 06:02:10;;;;;;;7.72;4.55;;;;;;;;;;4974248;28;20050;-72
2023/04/05 06:04:36;;;;;;;8.20;3.90;;;;;;;;;;4970297;28;20046;-71
2023/04/05 06:07:03;;;;;;;8.25;3.85;;;;;;;;;;4978376;28;20156;-71
2023/04/05 06:09:28;;;;;;;4.65;3.75;;;;;;;;;;4987956;28;20862;-71
2023/04/05 06:11:55;;;;;;;5.75;3.45;;;;;;;;;;4980963;28;20057;-71
2023/04/05 06:14:21;;;;;;;9.40;3.75;;;;;;;;;;4972108;28;20060;-71
2023/04/05 06:16:46;;;;;;;5.60;3.45;;;;;;;;;;4973812;28;20050;-71
2023/04/05 06:19:12;;;;;;;10.32;3.83;;;;;;;;;;4983311;28;20052;-72
2023/04/05 06:21:37;;;;;;;5.82;4.07;;;;;;;;;;4977198;28;20046;-72
2023/04/05 06:24:03;;;;;;;7.20;4.00;;;;;;;;;;4981611;28;20069;-71
2023/04/05 06:26:29;;;;;;;6.45;3.58;;;;;;;;;;4967292;28;20452;-71
2023/04/05 06:28:55;;;;;;;6.05;3.97;;;;;;;;;;4983478;28;20046;-71
2023/04/05 06:31:26;;;;;;;4.63;3.22;;;;;;;;;;4975119;28;20673;-71
2023/04/05 06:33:52;;;;;;;7.93;3.97;;;;;;;;;;4982223;28;20042;-71
2023/04/05 06:36:17;;;;;;;5.22;3.20;;;;;;;;;;4973550;28;20325;-71
2023/04/05 06:38:43;;;;;;;6.32;3.97;;;;;;;;;;4995428;28;20042;-71
2023/04/05 06:41:08;;;;;;;7.45;4.18;;;;;;;;;;4963882;28;20047;-73
2023/04/05 06:43:34;;;;;;;6.55;3.88;;;;;;;;;;4968973;28;20492;-73
2023/04/05 06:45:59;;;;;;;7.20;3.90;;;;;;;;;;4970520;28;20050;-74
2023/04/05 06:48:28;;;;;;;12.35;3.78;;;;;;;;;;4970707;28;20503;-71
2023/04/05 06:51:00;;;;;;;5.03;3.72;;;;;;;;;;4994907;28;20046;-71
2023/04/05 06:53:27;;;;;;;8.63;4.40;;;;;;;;;;4980905;28;20130;-72
2023/04/05 06:55:54;;;;;;;9.98;4.00;;;;;;;;;;4971183;28;20445;-70
2023/04/05 06:58:20;;;;;;;7.90;3.75;;;;;;;;;;4971190;28;20527;-69
2023/04/05 07:00:45;;;;;;;5.65;3.80;;;;;;;;;;4974444;28;20051;-70
2023/04/05 07:03:11;;;;;;;7.88;4.40;;;;;;;;;;4965511;28;20042;-70
2023/04/05 07:05:36;;;;;;;4.50;3.03;;;;;;;;;;4979747;28;20046;-70
2023/04/05 07:08:02;;;;;;;6.32;3.90;;;;;;;;;;4968201;28;20134;-71
2023/04/05 07:10:27;;;;;;;5.18;4.00;;;;;;;;;;4972779;28;20042;-69
2023/04/05 07:12:53;;;;;;;5.25;4.00;;;;;;;;;;4968318;28;20054;-69
2023/04/05 07:15:18;;;;;;;5.38;4.10;;;;;;;;;;4967860;28;20134;-69
2023/04/05 07:17:44;;;;;;;6.63;3.20;;;;;;;;;;4967797;28;20803;-70
2023/04/05 07:20:10;;;;;;;5.25;3.90;;;;;;;;;;4972357;28;20085;-70
2023/04/05 07:22:36;;;;;;;5.03;3.95;;;;;;;;;;4973025;28;20038;-70
2023/04/05 07:25:01;;;;;;;5.53;3.85;;;;;;;;;;4980111;28;20104;-70
2023/04/05 07:27:29;;;;;;;6.20;3.95;;;;;;;;;;4971588;28;20081;-68
2023/04/05 07:29:55;;;;;;;6.47;4.60;;;;;;;;;;4975586;28;20050;-68
2023/04/05 07:32:20;;;;;;;4.75;2.50;;;;;;;;;;4972952;28;20510;-69
2023/04/05 07:34:46;;;;;;;8.32;4.88;;;;;;;;;;4972805;28;20046;-70
2023/04/05 07:37:12;;;;;;;7.45;4.28;;;;;;;;;;4980074;28;20045;-69
2023/04/05 07:39:37;;;;;;;8.75;4.22;;;;;;;;;;4979428;28;20100;-69
2023/04/05 07:42:03;;;;;;;7.50;3.90;;;;;;;;;;4986797;28;20147;-68
2023/04/05 07:44:28;;;;;;;6.63;4.43;;;;;;;;;;4966731;28;20050;-70
2023/04/05 07:46:54;;;;;;;7.50;4.10;;;;;;;;;;4968162;28;20093;-70
2023/04/05 07:49:24;;;;;;;5.10;3.83;;;;;;;;;;4980259;28;20522;-69
2023/04/05 07:51:52;;;;;;;7.07;4.32;;;;;;;;;;4967642;28;20099;-70
2023/04/05 07:54:17;;;;;;;4.38;3.83;;;;;;;;;;4968539;28;20051;-71
2023/04/05 07:56:43;;;;;;;10.20;4.20;;;;;;;;;;4967414;28;20455;-68
2023/04/05 07:59:08;;;;;;;5.97;4.20;;;;;;;;;;4972677;28;20050;-69
2023/04/05 08:01:34;;;;;;;5.35;4.13;;;;;;;;;;4965806;28;20134;-72
2023/04/05 08:04:00;;;;;;;7.72;4.25;;;;;;;;;;4963009;28;20113;-71
2023/04/05 08:06:26;;;;;;;7.30;4.63;;;;;;;;;;4975094;28;20054;-71
2023/04/05 08:08:51;;;;;;;8.88;4.03;;;;;;;;;;4975667;28;20492;-71
2023/04/05 08:11:17;;;;;;;7.35;4.50;;;;;;;;;;4977230;28;20073;-71
2023/04/05 08:13:42;;;;;;;8.20;4.20;;;;;;;;;;4978679;28;20046;-70
2023/04/05 08:16:09;;;;;;;6.03;3.72;;;;;;;;;;4973776;28;20042;-71
2023/04/05 08:18:35;;;;;;;8.88;4.18;;;;;;;;;;4970789;28;20137;-71
2023/04/05 08:21:00;;;;;;;6.60;4.60;;;;;;;;;;4968225;28;20050;-71
2023/04/05 08:23:26;;;;;;;9.93;4.13;;;;;;;;;;4978818;28;20034;-72
2023/04/05 08:25:52;;;;;;;7.32;4.25;;;;;;;;;;4971698;28;20281;-72
2023/04/05 08:28:18;;;;;;;8.48;4.55;;;;;;;;;;4978681;28;20089;-72
2023/04/05 08:30:45;;;;;;;8.18;3.78;;;;;;;;;;4974605;28;20126;-71
2023/04/05 08:33:11;;;;;;;8.02;4.50;;;;;;;;;;4978578;28;20389;-71
2023/04/05 08:35:37;;;;;;;3.97;3.63;;;;;;;;;;4978957;28;20046;-71
2023/04/05 08:38:03;;;;;;;5.50;4.00;;;;;;;;;;4971993;28;20058;-70
2023/04/05 08:40:44;;;;;;;7.57;3.83;;;;;;;;;;4974339;28;20054;-72
2023/04/05 08:43:39;;;;;;;6.88;4.00;;;;;;;;;;4973496;28;20055;-72
2023/04/05 08:46:07;;;;;;;4.60;3.30;;;;;;;;;;4978247;28;20081;-71
2023/04/05 08:48:35;;;;;;;4.07;3.65;;;;;;;;;;4962900;28;20050;-71
2023/04/05 08:51:01;;;;;;;10.35;3.88;;;;;;;;;;4967994;28;20169;-70
2023/04/05 08:53:27;;;;;;;5.18;4.05;;;;;;;;;;4993706;28;20054;-71
2023/04/05 08:55:55;;;;;;;6.32;4.10;;;;;;;;;;4978325;28;20116;-71
2023/04/05 08:58:22;;;;;;;3.47;2.72;;;;;;;;;;4977022;28;20159;-70
2023/04/05 09:00:50;;;;;;;5.28;3.65;;;;;;;;;;4979065;28;20046;-70
2023/04/05 09:03:21;;;;;;;4.55;3.47;;;;;;;;;;4975134;28;20125;-70
2023/04/05 09:05:51;;;;;;;7.13;4.00;;;;;;;;;;4967239;28;20043;-70
2023/04/05 09:08:18;;;;;;;6.03;3.97;;;;;;;;;;4977333;28;20046;-71
2023/04/05 09:10:43;;;;;;;5.20;3.72;;;;;;;;;;4966525;28;20133;-70
2023/04/05 09:13:09;;;;;;;5.25;4.03;;;;;;;;;;4975948;28;20058;-70
2023/04/05 09:15:38;;;;;;;5.35;3.90;;;;;;;;;;4972200;28;20041;-70
2023/04/05 09:18:03;;;;;;;5.38;3.67;;;;;;;;;;4973124;28;20058;-70
2023/04/05 09:20:29;;;;;;;4.88;3.80;;;;;;;;;;4976335;28;20138;-70
2023/04/05 09:22:56;;;;;;;6.65;3.47;;;;;;;;;;4972407;28;20554;-71
2023/04/05 09:25:30;;;;;;;4.32;2.95;;;;;;;;;;4969695;28;20678;-70
2023/04/05 09:27:57;;;;;;;10.98;4.20;;;;;;;;;;4978885;28;20136;-70
2023/04/05 09:30:23;;;;;;;5.28;3.55;;;;;;;;;;4973791;28;20101;-70
2023/04/05 09:32:53;;;;;;;8.55;3.78;;;;;;;;;;4988639;28;20043;-71
2023/04/05 09:35:25;;;;;;;6.28;3.92;;;;;;;;;;4982372;28;20042;-70
2023/04/05 09:37:52;;;;;;;5.93;3.28;;;;;;;;;;4979443;28;20055;-70
2023/04/05 09:40:18;;;;;;;5.45;3.90;;;;;;;;;;4980360;28;20057;-71
2023/04/05 09:42:44;;;;;;;5.10;3.65;;;;;;;;;;4977096;28;20054;-70
2023/04/05 09:45:11;;;;;;;6.32;4.18;;;;;;;;;;4978827;28;20057;-70
2023/04/05 09:47:54;;;;;;;5.25;4.10;;;;;;;;;;4993733;28;20065;-70
2023/04/05 09:50:19;;;;;;;5.65;3.13;;;;;;;;;;4975378;28;20137;-71
2023/04/05 09:52:45;;;;;;;4.90;3.60;;;;;;;;;;4980674;28;20052;-72
2023/04/05 09:55:11;;;;;;;6.22;3.85;;;;;;;;;;4974468;28;20606;-71
2023/04/05 09:57:38;;;;;;;7.43;3.80;;;;;;;;;;4981699;28;20077;-71
2023/04/05 10:00:06;;;;;;;7.38;3.72;;;;;;;;;;4977794;28;20050;-70
2023/04/05 10:02:40;;;;;;;4.05;3.47;;;;;;;;;;4977898;28;20089;-71
2023/04/05 10:05:06;;;;;;;6.07;3.28;;;;;;;;;;4981834;28;20070;-70
2023/04/05 10:07:33;;;;;;;4.22;3.60;;;;;;;;;;4983188;28;20085;-71
2023/04/05 10:10:00;;;;;;;5.80;3.60;;;;;;;;;;4980143;28;20096;-72
2023/04/05 10:12:27;;;;;;;4.47;3.55;;;;;;;;;;4968046;28;20124;-71
2023/04/05 10:14:54;;;;;;;5.45;3.90;;;;;;;;;;4974919;28;20050;-70
2023/04/05 10:17:30;;;;;;;6.72;3.60;;;;;;;;;;4974495;28;20046;-70
2023/04/05 10:20:15;;;;;;;4.53;3.15;;;;;;;;;;4982641;28;20072;-70
2023/04/05 10:23:06;;;;;;;4.45;3.45;;;;;;;;;;4975897;28;20057;-70
2023/04/05 10:25:52;;;;;;;5.53;3.97;;;;;;;;;;4977948;28;20153;-70
2023/04/05 10:28:35;;;;;;;6.25;3.92;;;;;;;;;;4986629;28;20050;-70
2023/04/05 10:31:13;;;;;;;;;;;;;;;;;;4982941;28;20943;-71
2023/04/05 10:33:46;;;;;;;5.35;3.90;;;;;;;;;;4963476;28;19923;-71
2023/04/05 10:36:25;;;;;;;6.53;3.80;;;;;;;;;;4982207;28;20050;-70
2023/04/05 10:39:03;;;;;;;3.63;3.33;;;;;;;;;;4974283;28;20046;-71
2023/04/05 10:41:47;;;;;;;4.53;3.35;;;;;;;;;;4975885;28;20073;-70
2023/04/05 10:44:14;;;;;;;3.03;2.80;;;;;;;;;;4972644;28;20046;-70
2023/04/05 10:46:40;;;;;;;5.07;3.85;;;;;;;;;;4970496;28;20062;-70
2023/04/05 10:49:19;;;;;;;4.75;3.78;;;;;;;;;;4973259;28;20464;-70
2023/04/05 10:51:45;;;;;;;4.97;3.70;;;;;;;;;;4966343;28;20130;-71
2023/04/05 10:54:10;;;;;;;5.80;3.88;;;;;;;;;;4970899;28;20059;-72
2023/04/05 10:56:37;;;;;;;6.20;3.58;;;;;;;;;;4981002;28;20038;-72
2023/04/05 10:59:04;;;;;;;4.65;3.65;;;;;;;;;;4982035;28;20054;-72
2023/04/05 11:01:30;;;;;;;4.63;3.08;;;;;;;;;;4971045;28;20559;-72
2023/04/05 11:03:55;;;;;;;5.18;3.72;;;;;;;;;;4976121;28;20104;-71
2023/04/05 11:06:32;;;;;;;5.28;3.50;;;;;;;;;;4981799;28;20716;-71
2023/04/05 11:09:14;;;;;;;3.15;2.60;;;;;;;;;;4982196;28;20050;-70
2023/04/05 11:11:51;;;;;;;4.35;3.83;;;;;;;;;;4980343;28;20094;-71
2023/04/05 11:14:21;;;;;;;3.15;2.80;;;;;;;;;;4980528;28;20061;-71
2023/04/05 11:16:54;;;;;;;5.43;3.72;;;;;;;;;;4996089;28;20042;-70
2023/04/05 11:19:20;;;;;;;5.60;3.78;;;;;;;;;;4979163;28;20054;-71
2023/04/05 11:21:45;;;;;;;5.10;3.55;;;;;;;;;;4993120;28;20061;-71
2023/04/05 11:24:16;;;;;;;5.80;3.40;;;;;;;;;;4978373;28;20053;-72
2023/04/05 11:26:42;;;;;;;3.83;3.42;;;;;;;;;;4974744;28;20054;-71
2023/04/05 11:29:07;;;;;;;5.93;3.65;;;;;;;;;;4981890;28;20064;-71
2023/04/05 11:31:33;;;;;;;5.43;3.47;;;;;;;;;;4975871;28;20050;-71
2023/04/05 11:34:11;;;;;;;4.85;3.15;;;;;;;;;;4969589;28;20133;-72
2023/04/05 11:36:47;;;;;;;6.20;3.80;;;;;;;;;;4988493;28;20046;-71
2023/04/05 11:39:18;;;;;;;5.72;3.55;;;;;;;;;;4971855;28;20067;-70
2023/04/05 11:41:52;;;;;;;6.88;4.20;;;;;;;;;;4973010;28;20161;-70
2023/04/05 11:44:18;;;;;;;6.13;3.83;;;;;;;;;;4981087;28;20096;-70
2023/04/05 11:46:47;;;;;;;5.22;3.88;;;;;;;;;;4982102;28;20483;-70
2023/04/05 11:49:13;;;;;;;5.50;3.78;;;;;;;;;;4982485;28;20068;-70
2023/04/05 11:51:42;;;;;;;6.63;3.55;;;;;;;;;;4974458;28;20030;-70
2023/04/05 11:54:11;;;;;;;3.97;2.67;;;;;;;;;;4996436;28;20058;-70
2023/04/05 11:56:37;;;;;;;4.40;3.63;;;;;;;;;;4974154;28;20384;-70
2023/04/05 11:59:02;;;;;;;6.85;3.35;;;;;;;;;;4981567;28;20054;-70
2023/04/05 12:01:27;;;;;;;5.68;3.80;;;;;;;;;;4979368;28;20054;-70
2023/04/05 12:03:55;;;;;;;7.53;3.50;;;;;;;;;;4980233;28;20097;-70
2023/04/05 12:06:24;;;;;;;4.88;3.72;;;;;;;;;;4971344;28;20069;-70
2023/04/05 12:08:55;;;;;;;6.13;4.00;;;;;;;;;;4980589;28;20137;-70
2023/04/05 12:11:27;;;;;;;3.78;3.20;;;;;;;;;;4979846;28;20488;-70
2023/04/05 12:13:54;;;;;;;4.93;3.33;;;;;;;;;;4980341;28;20046;-71
2023/04/05 12:16:20;;;;;;;4.93;3.50;;;;;;;;;;4973366;28;20045;-71
2023/04/05 12:18:55;;;;;;;6.50;4.30;;;;;;;;;;4966856;28;20050;-71
2023/04/05 12:21:21;;;;;;;6.60;4.00;;;;;;;;;;4969019;28;20061;-72
2023/04/05 12:23:47;;;;;;;6.75;3.75;;;;;;;;;;4976924;28;20050;-73
2023/04/05 12:26:13;;;;;;;5.30;3.80;;;;;;;;;;4969779;28;20157;-69
2023/04/05 12:28:54;;;;;;;3.42;3.13;;;;;;;;;;4963918;28;20050;-72
2023/04/05 12:31:43;;;;;;;5.47;3.50;;;;;;;;;;4975298;28;20065;-72
2023/04/05 12:34:10;;;;;;;5.68;3.40;;;;;;;;;;4992243;28;20482;-72
2023/04/05 12:36:37;;;;;;;4.45;3.25;;;;;;;;;;4993023;28;20035;-72
2023/04/05 12:39:07;;;;;;;6.70;3.50;;;;;;;;;;4977277;28;20049;-72
2023/04/05 12:41:33;;;;;;;6.65;3.30;;;;;;;;;;4973980;28;20054;-71
2023/04/05 12:44:04;;;;;;;4.45;3.20;;;;;;;;;;4969761;28;20124;-73
2023/04/05 12:46:41;;;;;;;4.00;3.53;;;;;;;;;;4972050;28;20061;-72
2023/04/05 12:49:11;;;;;;;4.47;3.50;;;;;;;;;;4971660;28;20069;-71
2023/04/05 12:51:41;;;;;;;4.80;3.63;;;;;;;;;;4967293;28;20053;-73
2023/04/05 12:54:07;;;;;;;4.80;3.45;;;;;;;;;;4978771;28;20061;-72
2023/04/05 12:56:32;;;;;;;9.75;4.25;;;;;;;;;;4979598;28;20054;-70
2023/04/05 12:58:58;;;;;;;4.18;3.47;;;;;;;;;;4969367;28;20066;-73
2023/04/05 13:01:23;;;;;;;5.15;3.72;;;;;;;;;;4967082;28;20154;-72
2023/04/05 13:03:50;;;;;;;4.47;3.50;;;;;;;;;;4992836;28;21099;-72
2023/04/05 13:06:15;;;;;;;3.90;3.58;;;;;;;;;;4995024;28;20054;-74
2023/04/05 13:08:41;;;;;;;4.90;3.60;;;;;;;;;;4970272;28;20050;-72
2023/04/05 13:11:06;;;;;;;5.18;3.58;;;;;;;;;;4964871;28;20492;-70
2023/04/05 13:13:33;;;;;;;6.65;3.50;;;;;;;;;;4965765;28;20039;-72
2023/04/05 13:15:58;;;;;;;4.10;3.75;;;;;;;;;;4967666;28;20062;-72
2023/04/05 13:18:24;;;;;;;5.32;3.30;;;;;;;;;;4965793;28;20097;-72
2023/04/05 13:20:49;;;;;;;4.38;3.40;;;;;;;;;;4968713;28;20074;-71
2023/04/05 13:23:15;;;;;;;5.82;3.58;;;;;;;;;;4966024;28;20042;-72
2023/04/05 13:25:44;;;;;;;5.97;3.75;;;;;;;;;;4981554;28;20057;-72
2023/04/05 13:28:09;;;;;;;6.57;3.42;;;;;;;;;;4972551;28;20050;-73
2023/04/05 13:30:35;;;;;;;3.47;3.03;;;;;;;;;;4971962;28;20104;-71
2023/04/05 13:33:02;;;;;;;5.95;3.40;;;;;;;;;;4976767;28;20054;-71
2023/04/05 13:35:28;;;;;;;6.05;3.60;;;;;;;;;;4979231;28;20207;-73
2023/04/05 13:37:53;;;;;;;5.22;3.45;;;;;;;;;;4997069;28;20133;-74
2023/04/05 13:40:18;;;;;;;4.72;3.83;;;;;;;;;;4982691;28;20042;-75
2023/04/05 13:42:44;;;;;;;4.70;3.30;;;;;;;;;;4979792;28;20100;-73
2023/04/05 13:45:11;;;;;;;5.45;3.83;;;;;;;;;;4975800;28;20074;-75
2023/04/05 13:47:36;;;;;;;5.53;4.10;;;;;;;;;;4980596;28;20996;-73
2023/04/05 13:50:02;;;;;;;6.07;3.95;;;;;;;;;;4978200;28;20045;-73
2023/04/05 13:52:28;;;;;;;4.60;3.58;;;;;;;;;;4983414;28;20046;-74
2023/04/05 13:54:54;;;;;;;5.30;3.97;;;;;;;;;;4982284;28;20046;-74
2023/04/05 13:57:19;;;;;;;5.25;4.13;;;;;;;;;;4971683;28;20428;-75
2023/04/05 13:59:45;;;;;;;6.28;3.78;;;;;;;;;;4978277;28;20098;-73
2023/04/05 14:02:10;;;;;;;4.30;3.40;;;;;;;;;;4976583;28;20050;-74
2023/04/05 14:04:40;;;;;;;3.78;2.95;;;;;;;;;;4977924;28;20042;-74
2023/04/05 14:07:06;;;;;;;4.13;3.40;;;;;;;;;;4976741;28;20046;-73
2023/04/05 14:09:32;;;;;;;4.13;3.70;;;;;;;;;;4977606;28;20702;-75
2023/04/05 14:12:00;;;;;;;12.68;4.72;;;;;;;;;;4980119;28;20054;-75
2023/04/05 14:14:25;;;;;;;4.40;3.95;;;;;;;;;;4982262;28;20096;-75
2023/04/05 14:16:51;;;;;;;4.03;3.50;;;;;;;;;;4980587;28;20046;-75
2023/04/05 14:19:17;;;;;;;6.10;3.97;;;;;;;;;;4981300;28;20050;-73
2023/04/05 14:21:42;;;;;;;4.93;3.15;;;;;;;;;;4979836;28;20058;-73
2023/04/05 14:24:08;;;;;;;8.23;3.95;;;;;;;;;;4977359;28;20062;-74
2023/04/05 14:26:33;;;;;;;5.88;4.18;;;;;;;;;;4993445;28;20117;-74
2023/04/05 14:28:59;;;;;;;5.22;3.90;;;;;;;;;;4971859;28;20057;-75
2023/04/05 14:31:25;;;;;;;5.95;3.75;;;;;;;;;;4972802;28;20396;-75
2023/04/05 14:33:50;;;;;;;4.22;3.78;;;;;;;;;;4972672;28;20054;-73
2023/04/05 14:36:16;;;;;;;6.93;3.90;;;;;;;;;;4980947;28;20459;-74
2023/04/05 14:38:41;;;;;;;3.55;3.25;;;;;;;;;;4980722;28;20054;-73
2023/04/05 14:41:07;;;;;;;10.98;3.63;;;;;;;;;;4968438;28;20042;-73
2023/04/05 14:43:33;;;;;;;8.98;4.22;;;;;;;;;;4968805;28;20050;-74
2023/04/05 14:45:58;;;;;;;7.75;4.00;;;;;;;;;;4966631;28;20064;-72
2023/04/05 14:48:24;;;;;;;5.10;3.95;;;;;;;;;;4968651;28;20046;-73
2023/04/05 14:50:49;;;;;;;8.05;4.32;;;;;;;;;;4968707;28;20050;-72
2023/04/05 14:53:15;;;;;;;4.78;3.83;;;;;;;;;;4969286;28;20039;-74